createdAt,value
2022-10-24T00:01:38.488Z,13.90
2022-10-24T00:04:24.156Z,13.88
2022-10-24T00:07:10.177Z,13.84
2022-10-24T00:09:56.126Z,13.81
2022-10-24T00:12:41.995Z,13.78
2022-10-24T00:15:28.238Z,13.77
2022-10-24T00:18:14.336Z,13.74
2022-10-24T00:21:00.372Z,13.72
2022-10-24T00:23:46.702Z,13.68
2022-10-24T00:26:32.797Z,13.65
2022-10-24T00:29:18.531Z,13.61
2022-10-24T00:32:04.715Z,13.61
2022-10-24T00:34:50.853Z,13.60
2022-10-24T00:37:36.656Z,13.57
2022-10-24T00:40:22.431Z,13.54
2022-10-24T00:43:23.769Z,13.51
2022-10-24T00:46:09.986Z,13.51
2022-10-24T00:48:55.709Z,13.46
2022-10-24T00:51:41.698Z,13.48
2022-10-24T00:54:27.774Z,13.46
2022-10-24T00:57:23.067Z,13.45
2022-10-24T01:00:15.575Z,13.42
2022-10-24T01:03:01.665Z,13.44
2022-10-24T01:06:16.457Z,13.39
2022-10-24T01:09:40.632Z,13.38
2022-10-24T01:12:59.364Z,13.36
2022-10-24T01:16:07.179Z,13.34
2022-10-24T01:19:11.328Z,13.28
2022-10-24T01:21:59.812Z,13.27
2022-10-24T01:25:06.133Z,13.22
2022-10-24T01:27:55.202Z,13.21
2022-10-24T01:31:04.945Z,13.15
2022-10-24T01:34:00.068Z,13.11
2022-10-24T01:36:58.862Z,13.11
2022-10-24T01:39:50.705Z,13.08
2022-10-24T01:42:38.855Z,13.08
2022-10-24T01:45:30.311Z,13.05
2022-10-24T01:48:19.391Z,13.01
2022-10-24T01:51:06.093Z,12.93
2022-10-24T01:53:51.900Z,13.00
2022-10-24T01:56:37.997Z,12.94
2022-10-24T01:59:29.683Z,12.94
2022-10-24T02:02:18.784Z,12.92
2022-10-24T02:05:09.372Z,12.91
2022-10-24T02:07:58.100Z,12.89
2022-10-24T02:10:50.599Z,12.86
2022-10-24T02:13:51.031Z,12.83
2022-10-24T02:16:47.083Z,12.68
2022-10-24T02:19:34.427Z,12.76
2022-10-24T02:23:08.724Z,12.79
2022-10-24T02:26:01.690Z,12.76
2022-10-24T02:28:59.875Z,12.71
2022-10-24T02:31:52.029Z,12.61
2022-10-24T02:34:40.012Z,12.67
2022-10-24T02:37:28.162Z,12.63
2022-10-24T02:40:15.795Z,12.62
2022-10-24T02:43:02.438Z,12.58
2022-10-24T02:45:53.812Z,12.56
2022-10-24T02:49:18.972Z,12.52
2022-10-24T02:52:05.312Z,12.49
2022-10-24T02:54:51.436Z,12.47
2022-10-24T02:57:37.409Z,12.47
2022-10-24T03:00:23.131Z,12.45
2022-10-24T03:03:08.861Z,12.41
2022-10-24T03:05:54.755Z,12.37
2022-10-24T03:08:40.669Z,12.39
2022-10-24T03:11:26.843Z,12.38
2022-10-24T03:14:16.126Z,12.37
2022-10-24T03:17:01.999Z,12.35
2022-10-24T03:19:47.750Z,12.33
2022-10-24T03:22:34.957Z,12.32
2022-10-24T03:25:20.842Z,12.29
2022-10-24T03:28:07.410Z,12.27
2022-10-24T03:30:53.701Z,12.22
2022-10-24T03:33:39.343Z,12.20
2022-10-24T03:36:25.144Z,12.18
2022-10-24T03:39:10.762Z,12.21
2022-10-24T03:41:56.514Z,12.18
2022-10-24T03:44:42.355Z,12.15
2022-10-24T03:47:28.302Z,12.09
2022-10-24T03:50:13.918Z,12.07
2022-10-24T03:53:00.440Z,12.07
2022-10-24T03:55:46.302Z,12.01
2022-10-24T03:58:32.146Z,11.96
2022-10-24T04:01:18.789Z,11.89
2022-10-24T04:04:04.630Z,11.90
2022-10-24T04:06:50.802Z,11.86
2022-10-24T04:09:36.718Z,11.87
2022-10-24T04:13:07.066Z,11.83
2022-10-24T04:15:53.066Z,11.79
2022-10-24T04:18:39.031Z,11.79
2022-10-24T04:21:24.744Z,11.81
2022-10-24T04:24:11.424Z,11.79
2022-10-24T04:26:57.109Z,11.78
2022-10-24T04:29:42.859Z,11.70
2022-10-24T04:32:36.271Z,11.67
2022-10-24T04:35:23.026Z,11.66
2022-10-24T04:38:09.114Z,11.68
2022-10-24T04:41:01.239Z,11.64
2022-10-24T04:43:47.297Z,11.63
2022-10-24T04:46:33.103Z,11.63
2022-10-24T04:49:21.158Z,11.60
2022-10-24T04:52:07.143Z,11.57
2022-10-24T04:54:53.052Z,11.59
2022-10-24T04:57:38.946Z,11.58
2022-10-24T05:00:24.942Z,11.56
2022-10-24T05:03:10.626Z,11.55
2022-10-24T05:05:56.740Z,11.52
2022-10-24T05:08:42.432Z,11.53
2022-10-24T05:11:28.146Z,11.50
2022-10-24T05:14:14.351Z,11.53
2022-10-24T05:17:00.131Z,11.46
2022-10-24T05:19:46.499Z,11.50
2022-10-24T05:22:32.578Z,11.49
2022-10-24T05:25:18.686Z,11.46
2022-10-24T05:28:07.347Z,11.45
2022-10-24T05:30:53.071Z,11.44
2022-10-24T05:33:46.944Z,11.46
2022-10-24T05:36:34.088Z,11.46
2022-10-24T05:39:20.078Z,11.47
2022-10-24T05:42:11.553Z,11.46
2022-10-24T05:44:57.533Z,11.49
2022-10-24T05:47:43.777Z,11.50
2022-10-24T05:50:30.196Z,11.50
2022-10-24T05:53:15.845Z,11.50
2022-10-24T05:56:01.714Z,11.50
2022-10-24T05:58:47.876Z,11.49
2022-10-24T06:01:33.546Z,11.52
2022-10-24T06:04:19.258Z,11.53
2022-10-24T06:07:04.938Z,11.57
2022-10-24T06:09:50.615Z,11.59
2022-10-24T06:12:36.715Z,11.58
2022-10-24T06:15:22.480Z,11.61
2022-10-24T06:18:08.419Z,11.71
2022-10-24T06:20:56.145Z,11.76
2022-10-24T06:23:42.454Z,11.80
2022-10-24T06:26:28.399Z,11.82
2022-10-24T06:29:14.103Z,11.88
2022-10-24T06:31:59.915Z,11.93
2022-10-24T06:34:46.018Z,11.99
2022-10-24T06:37:31.689Z,12.05
2022-10-24T06:40:18.401Z,12.10
2022-10-24T06:43:04.369Z,12.16
2022-10-24T06:45:50.188Z,12.21
2022-10-24T06:48:37.090Z,12.27
2022-10-24T06:51:25.655Z,12.32
2022-10-24T06:54:11.482Z,12.34
2022-10-24T06:56:57.632Z,12.42
2022-10-24T06:59:44.436Z,12.46
2022-10-24T07:02:30.519Z,12.49
2022-10-24T07:05:16.669Z,12.52
2022-10-24T07:08:02.506Z,12.53
2022-10-24T07:10:48.289Z,12.55
2022-10-24T07:13:34.427Z,12.57
2022-10-24T07:16:20.597Z,12.58
2022-10-24T07:19:06.739Z,12.57
2022-10-24T07:21:52.782Z,12.63
2022-10-24T07:24:38.664Z,12.66
2022-10-24T07:27:24.718Z,12.72
2022-10-24T07:30:16.981Z,12.75
2022-10-24T07:33:05.269Z,12.81
2022-10-24T07:35:52.195Z,12.87
2022-10-24T07:38:38.076Z,12.94
2022-10-24T07:41:25.475Z,12.96
2022-10-24T07:44:11.540Z,13.05
2022-10-24T07:46:57.784Z,13.14
2022-10-24T07:49:43.847Z,13.23
2022-10-24T07:52:29.396Z,13.31
2022-10-24T07:55:15.306Z,13.40
2022-10-24T07:58:01.033Z,13.50
2022-10-24T08:00:47.434Z,13.57
2022-10-24T08:03:33.817Z,13.65
2022-10-24T08:06:21.921Z,13.77
2022-10-24T08:09:07.507Z,13.85
2022-10-24T08:11:53.277Z,13.94
2022-10-24T08:14:41.024Z,14.02
2022-10-24T08:17:26.855Z,14.10
2022-10-24T08:20:12.906Z,14.17
2022-10-24T08:22:59.044Z,14.27
2022-10-24T08:35:17.925Z,14.92
2022-10-24T08:38:03.807Z,15.12
2022-10-24T08:40:49.944Z,15.29
2022-10-24T08:44:42.795Z,15.48
2022-10-24T08:49:10.055Z,15.72
2022-10-24T08:56:34.023Z,16.25
2022-10-24T08:59:19.885Z,16.50
2022-10-24T09:02:12.653Z,16.70
2022-10-24T09:05:34.935Z,16.91
2022-10-24T09:08:41.878Z,17.18
2022-10-24T09:11:52.620Z,17.40
2022-10-24T09:14:41.655Z,17.63
2022-10-24T09:17:35.492Z,17.87
2022-10-24T09:20:25.925Z,18.09
2022-10-24T09:23:13.148Z,18.30
2022-10-24T09:25:59.273Z,18.49
2022-10-24T09:28:45.472Z,18.65
2022-10-24T09:31:31.223Z,18.81
2022-10-24T09:34:17.554Z,18.98
2022-10-24T09:37:03.484Z,19.15
2022-10-24T09:40:19.073Z,19.40
2022-10-24T09:43:37.791Z,19.60
2022-10-24T09:46:29.421Z,19.83
2022-10-24T09:49:23.635Z,19.98
2022-10-24T09:52:15.713Z,20.09
2022-10-24T09:55:12.520Z,20.23
2022-10-24T09:58:04.052Z,20.40
2022-10-24T10:00:59.363Z,20.53
2022-10-24T10:04:06.113Z,20.66
2022-10-24T10:06:54.442Z,20.87
2022-10-24T10:09:51.586Z,21.05
2022-10-24T10:12:41.580Z,21.31
2022-10-24T10:15:38.674Z,21.53
2022-10-24T10:18:46.579Z,21.79
2022-10-24T10:21:53.882Z,22.04
2022-10-24T10:24:43.323Z,22.26
2022-10-24T10:27:40.775Z,22.48
2022-10-24T10:30:26.897Z,22.71
2022-10-24T10:33:20.563Z,22.96
2022-10-24T10:36:18.806Z,23.16
2022-10-24T10:39:17.271Z,23.40
2022-10-24T10:42:27.849Z,23.61
2022-10-24T10:45:40.916Z,23.78
2022-10-24T10:48:36.833Z,24.01
2022-10-24T10:51:43.381Z,24.20
2022-10-24T10:55:00.820Z,24.38
2022-10-24T10:58:08.774Z,24.54
2022-10-24T11:01:07.485Z,24.78
2022-10-24T11:03:53.518Z,24.98
2022-10-24T11:06:45.282Z,25.23
2022-10-24T11:09:48.526Z,25.49
2022-10-24T11:12:45.115Z,25.83
2022-10-24T11:15:35.077Z,26.19
2022-10-24T11:18:34.620Z,26.60
2022-10-24T11:21:23.470Z,27.04
2022-10-24T11:24:17.044Z,27.56
2022-10-24T11:27:04.434Z,28.06
2022-10-24T11:30:06.822Z,28.68
2022-10-24T11:32:53.796Z,29.28
2022-10-24T11:35:51.531Z,29.88
2022-10-24T11:38:45.409Z,30.55
2022-10-24T11:41:35.813Z,31.13
2022-10-24T11:44:33.773Z,31.64
2022-10-24T11:47:25.832Z,32.10
2022-10-24T11:50:34.807Z,32.50
2022-10-24T11:54:00.793Z,32.87
2022-10-24T11:57:03.400Z,33.29
2022-10-24T11:59:54.585Z,33.63
2022-10-24T12:02:58.990Z,34.12
2022-10-24T12:05:52.631Z,34.48
2022-10-24T12:08:49.254Z,34.88
2022-10-24T12:11:53.524Z,35.36
2022-10-24T12:14:51.473Z,35.72
2022-10-24T12:17:47.633Z,36.08
2022-10-24T12:20:33.975Z,36.33
2022-10-24T12:23:23.455Z,36.66
2022-10-24T12:26:18.865Z,36.93
2022-10-24T12:29:07.137Z,37.02
2022-10-24T12:31:53.845Z,37.13
2022-10-24T12:34:49.223Z,37.28
2022-10-24T12:37:36.431Z,37.41
2022-10-24T12:40:47.019Z,37.75
2022-10-24T12:43:40.482Z,38.05
2022-10-24T12:46:27.285Z,38.29
2022-10-24T12:49:18.519Z,38.51
2022-10-24T12:52:33.388Z,38.77
2022-10-24T12:55:39.651Z,38.77
2022-10-24T12:58:30.303Z,38.81
2022-10-24T13:01:25.260Z,39.18
2022-10-24T13:04:14.393Z,39.47
2022-10-24T13:07:32.914Z,39.75
2022-10-24T13:10:44.055Z,40.21
2022-10-24T13:13:52.549Z,40.20
2022-10-24T13:16:53.978Z,39.74
2022-10-24T13:19:40.714Z,39.10
2022-10-24T13:22:29.016Z,38.59
2022-10-24T13:25:33.748Z,38.14
2022-10-24T13:28:25.250Z,37.47
2022-10-24T13:31:17.169Z,37.07
2022-10-24T13:34:23.635Z,36.65
2022-10-24T13:37:14.290Z,36.05
2022-10-24T13:40:08.711Z,35.71
2022-10-24T13:42:58.576Z,35.49
2022-10-24T13:45:58.109Z,35.58
2022-10-24T13:48:46.812Z,35.58
2022-10-24T13:51:49.392Z,35.67
2022-10-24T13:54:38.226Z,35.53
2022-10-24T13:57:29.217Z,35.33
2022-10-24T14:00:28.201Z,35.05
2022-10-24T14:03:20.434Z,34.56
2022-10-24T14:06:08.869Z,34.09
2022-10-24T14:09:06.515Z,33.62
2022-10-24T14:11:56.501Z,33.09
2022-10-24T14:14:42.536Z,32.55
2022-10-24T14:17:33.762Z,32.12
2022-10-24T14:20:24.037Z,31.62
2022-10-24T14:23:25.469Z,31.17
2022-10-24T14:26:19.843Z,30.67
2022-10-24T14:29:05.695Z,30.18
2022-10-24T14:32:14.154Z,29.80
2022-10-24T14:37:51.369Z,28.99
2022-10-24T14:40:37.137Z,28.66
2022-10-24T14:43:28.836Z,28.33
2022-10-24T14:46:14.816Z,28.03
2022-10-24T14:49:33.498Z,27.75
2022-10-24T14:52:39.019Z,27.36
2022-10-24T14:55:24.947Z,27.12
2022-10-24T14:58:21.890Z,26.94
2022-10-24T15:01:16.560Z,26.72
2022-10-24T15:04:04.568Z,26.49
2022-10-24T15:06:50.304Z,26.30
2022-10-24T15:09:36.170Z,26.11
2022-10-24T15:12:37.787Z,25.92
2022-10-24T15:15:34.088Z,25.73
2022-10-24T15:18:31.546Z,25.53
2022-10-24T15:21:20.361Z,25.31
2022-10-24T15:24:06.919Z,25.09
2022-10-24T15:26:52.990Z,24.96
2022-10-24T15:29:40.400Z,24.76
2022-10-24T15:32:26.624Z,24.61
2022-10-24T15:35:13.948Z,24.43
2022-10-24T15:38:03.149Z,24.28
2022-10-24T15:40:49.223Z,24.11
2022-10-24T15:43:34.887Z,23.96
2022-10-24T15:46:22.134Z,23.80
2022-10-24T15:49:08.402Z,23.66
2022-10-24T15:51:54.235Z,23.49
2022-10-24T15:54:42.068Z,23.39
2022-10-24T15:57:27.949Z,23.19
2022-10-24T16:00:15.756Z,23.11
2022-10-24T16:03:01.592Z,22.99
2022-10-24T16:05:52.304Z,22.86
2022-10-24T16:08:38.234Z,22.74
2022-10-24T16:11:24.036Z,22.63
2022-10-24T16:14:18.204Z,22.49
2022-10-24T16:17:03.966Z,22.37
2022-10-24T16:19:49.779Z,22.26
2022-10-24T16:22:35.572Z,22.16
2022-10-24T16:25:24.743Z,22.04
2022-10-24T16:28:10.882Z,21.93
2022-10-24T16:30:56.929Z,21.80
2022-10-24T16:33:42.671Z,21.76
2022-10-24T16:36:28.658Z,21.67
2022-10-24T16:39:16.355Z,21.58
2022-10-24T16:42:04.694Z,21.44
2022-10-24T16:44:51.233Z,21.44
2022-10-24T16:47:37.556Z,21.34
2022-10-24T16:50:26.264Z,21.32
2022-10-24T16:53:14.388Z,21.25
2022-10-24T16:56:00.106Z,21.19
2022-10-24T16:58:45.854Z,21.07
2022-10-24T17:01:32.049Z,21.06
2022-10-24T17:04:17.885Z,20.98
2022-10-24T17:07:04.477Z,20.90
2022-10-24T17:09:50.684Z,20.88
2022-10-24T17:12:36.554Z,20.75
2022-10-24T17:15:23.046Z,20.77
2022-10-24T17:18:09.113Z,20.71
2022-10-24T17:21:00.157Z,20.63
2022-10-24T17:23:46.778Z,20.60
2022-10-24T17:26:32.730Z,20.56
2022-10-24T17:29:31.627Z,20.51
2022-10-24T17:32:17.858Z,20.47
2022-10-24T17:35:04.294Z,20.43
2022-10-24T17:37:59.085Z,20.38
2022-10-24T17:40:47.396Z,20.34
2022-10-24T17:43:33.488Z,20.29
2022-10-24T17:46:19.962Z,20.25
2022-10-24T17:49:05.746Z,20.20
2022-10-24T17:51:51.880Z,20.15
2022-10-24T17:54:42.155Z,20.11
2022-10-24T17:57:30.578Z,20.06
2022-10-24T18:00:16.550Z,20.01
2022-10-24T18:03:03.016Z,19.98
2022-10-24T18:05:48.556Z,19.93
2022-10-24T18:08:34.434Z,19.84
2022-10-24T18:11:20.438Z,19.85
2022-10-24T18:14:06.194Z,19.80
2022-10-24T18:16:52.195Z,19.76
2022-10-24T18:19:37.913Z,19.63
2022-10-24T18:22:23.983Z,19.68
2022-10-24T18:25:11.739Z,19.63
2022-10-24T18:27:57.655Z,19.58
2022-10-24T18:30:43.615Z,19.54
2022-10-24T18:33:32.473Z,19.47
2022-10-24T18:36:24.522Z,19.43
2022-10-24T18:39:10.579Z,19.38
2022-10-24T18:42:03.747Z,19.35
2022-10-24T18:44:51.133Z,19.29
2022-10-24T18:47:37.330Z,19.23
2022-10-24T18:50:25.184Z,19.19
2022-10-24T18:53:39.273Z,19.15
2022-10-24T18:56:25.085Z,19.13
2022-10-24T18:59:13.581Z,19.09
2022-10-24T19:02:11.518Z,19.04
2022-10-24T19:05:10.173Z,18.99
2022-10-24T19:07:56.277Z,18.96
2022-10-24T19:10:42.824Z,18.90
2022-10-24T19:13:28.981Z,18.83
2022-10-24T19:16:19.351Z,18.76
2022-10-24T19:19:05.872Z,18.65
2022-10-24T19:21:51.716Z,18.67
2022-10-24T19:24:37.763Z,18.65
2022-10-24T19:27:26.946Z,18.61
2022-10-24T19:30:13.340Z,18.55
2022-10-24T19:32:58.977Z,18.54
2022-10-24T19:35:47.918Z,18.52
2022-10-24T19:38:34.108Z,18.51
2022-10-24T19:41:20.423Z,18.46
2022-10-24T19:44:06.443Z,18.41
2022-10-24T19:46:52.281Z,18.37
2022-10-24T19:49:38.195Z,18.38
2022-10-24T19:52:24.934Z,18.33
2022-10-24T19:55:11.289Z,18.18
2022-10-24T19:57:57.010Z,18.27
2022-10-24T20:00:42.995Z,18.23
2022-10-24T20:03:28.966Z,18.18
2022-10-24T20:06:15.398Z,18.16
2022-10-24T20:09:01.570Z,18.13
2022-10-24T20:11:47.910Z,18.11
2022-10-24T20:14:33.846Z,18.08
2022-10-24T20:17:19.881Z,18.04
2022-10-24T20:20:06.116Z,17.99
2022-10-24T20:22:52.150Z,17.99
2022-10-24T20:25:37.964Z,17.95
2022-10-24T20:28:23.903Z,17.90
2022-10-24T20:31:19.435Z,17.88
2022-10-24T20:34:09.871Z,17.84
2022-10-24T20:36:55.664Z,17.79
2022-10-24T20:39:41.478Z,17.69
2022-10-24T20:42:27.308Z,17.69
2022-10-24T20:45:13.077Z,17.65
2022-10-24T20:47:59.354Z,17.60
2022-10-24T20:50:45.058Z,17.51
2022-10-24T20:53:32.139Z,17.50
2022-10-24T20:56:26.070Z,17.46
2022-10-24T20:59:13.437Z,17.41
2022-10-24T21:01:59.389Z,17.34
2022-10-24T21:04:45.439Z,17.31
2022-10-24T21:07:31.710Z,17.26
2022-10-24T21:10:18.208Z,17.22
2022-10-24T21:13:04.096Z,17.18
2022-10-24T21:15:56.717Z,17.12
2022-10-24T21:18:42.723Z,17.06
2022-10-24T21:21:28.639Z,17.01
2022-10-24T21:24:15.997Z,16.98
2022-10-24T21:27:02.055Z,16.90
2022-10-24T21:29:47.886Z,16.90
2022-10-24T21:32:33.555Z,16.87
2022-10-24T21:35:19.437Z,16.75
2022-10-24T21:38:05.381Z,16.76
2022-10-24T21:41:00.167Z,16.69
2022-10-24T21:43:46.702Z,16.66
2022-10-24T21:46:33.366Z,16.56
2022-10-24T21:49:19.402Z,16.55
2022-10-24T21:52:05.011Z,16.46
2022-10-24T21:54:50.669Z,16.45
2022-10-24T21:57:36.465Z,16.38
2022-10-24T22:00:22.196Z,16.31
2022-10-24T22:03:07.965Z,16.30
2022-10-24T22:05:57.458Z,16.24
2022-10-24T22:08:44.344Z,16.18
2022-10-24T22:11:31.354Z,16.11
2022-10-24T22:14:18.045Z,16.04
2022-10-24T22:17:03.822Z,15.96
2022-10-24T22:19:49.834Z,15.93
2022-10-24T22:22:35.641Z,15.89
2022-10-24T22:25:21.459Z,15.86
2022-10-24T22:28:07.696Z,15.84
2022-10-24T22:30:53.834Z,15.79
2022-10-24T22:33:40.717Z,15.80
2022-10-24T22:36:46.513Z,15.75
2022-10-24T22:39:33.135Z,15.72
2022-10-24T22:42:20.307Z,15.69
2022-10-24T22:45:07.188Z,15.66
2022-10-24T22:48:04.699Z,15.64
2022-10-24T22:50:56.075Z,15.60
2022-10-24T22:53:43.315Z,15.56
2022-10-24T22:56:33.507Z,15.54
2022-10-24T22:59:20.029Z,15.52
2022-10-24T23:02:26.107Z,15.48
2022-10-24T23:06:01.135Z,15.43
2022-10-24T23:08:46.732Z,15.39
2022-10-24T23:11:32.653Z,15.38
2022-10-24T23:14:18.854Z,15.37
2022-10-24T23:17:05.254Z,15.37
2022-10-24T23:19:52.195Z,15.29
2022-10-24T23:25:25.554Z,15.34
2022-10-24T23:28:31.331Z,15.31
2022-10-24T23:31:17.451Z,15.29
2022-10-24T23:34:03.781Z,15.26
2022-10-24T23:36:49.975Z,15.20
2022-10-24T23:39:36.420Z,15.17
2022-10-24T23:42:22.486Z,15.16
2022-10-24T23:45:20.310Z,15.11
2022-10-24T23:48:42.025Z,15.09
2022-10-24T23:51:31.886Z,15.08
2022-10-24T23:54:20.601Z,15.05
2022-10-24T23:57:18.388Z,15.03
